createdAt,value
2022-12-28T00:00:14.271Z,985.26
2022-12-28T00:01:35.078Z,985.25
2022-12-28T00:02:14.013Z,985.26
2022-12-28T00:03:13.911Z,985.22
2022-12-28T00:04:13.807Z,985.19
2022-12-28T00:05:13.724Z,985.17
2022-12-28T00:06:13.634Z,985.15
2022-12-28T00:07:34.527Z,985.13
2022-12-28T00:08:13.474Z,985.18
2022-12-28T00:09:13.370Z,985.13
2022-12-28T00:10:13.301Z,985.12
2022-12-28T00:11:18.625Z,985.06
2022-12-28T00:12:13.113Z,985.15
2022-12-28T00:13:34.008Z,985.08
2022-12-28T00:14:12.944Z,985.09
2022-12-28T00:15:12.850Z,985.07
2022-12-28T00:16:12.799Z,985.05
2022-12-28T00:17:12.680Z,985.03
2022-12-28T00:18:12.585Z,985.01
2022-12-28T00:19:33.491Z,984.96
2022-12-28T00:20:12.428Z,984.90
2022-12-28T00:21:12.333Z,984.88
2022-12-28T00:22:12.250Z,984.88
2022-12-28T00:23:12.163Z,984.85
2022-12-28T00:24:12.075Z,984.82
2022-12-28T00:25:32.949Z,984.84
2022-12-28T00:26:11.918Z,984.83
2022-12-28T00:27:11.811Z,984.84
2022-12-28T00:28:11.728Z,984.85
2022-12-28T00:29:11.636Z,984.87
2022-12-28T00:30:11.545Z,984.83
2022-12-28T00:31:32.516Z,984.86
2022-12-28T00:32:11.385Z,984.85
2022-12-28T00:33:11.282Z,984.85
2022-12-28T00:34:11.191Z,984.86
2022-12-28T00:35:11.113Z,984.85
2022-12-28T00:36:11.027Z,984.81
2022-12-28T00:37:31.922Z,984.79
2022-12-28T00:38:10.861Z,984.82
2022-12-28T00:39:10.762Z,984.81
2022-12-28T00:40:10.680Z,984.80
2022-12-28T00:41:10.585Z,984.80
2022-12-28T00:42:10.517Z,984.79
2022-12-28T00:43:31.395Z,984.74
2022-12-28T00:44:10.332Z,984.75
2022-12-28T00:45:10.244Z,984.78
2022-12-28T00:46:10.203Z,984.77
2022-12-28T00:47:10.057Z,984.82
2022-12-28T00:48:09.976Z,984.77
2022-12-28T00:49:30.859Z,984.75
2022-12-28T00:50:09.811Z,984.76
2022-12-28T00:51:09.712Z,984.73
2022-12-28T00:52:09.623Z,984.71
2022-12-28T00:53:09.539Z,984.77
2022-12-28T00:54:09.505Z,984.73
2022-12-28T00:55:30.343Z,984.75
2022-12-28T00:56:09.285Z,984.71
2022-12-28T00:57:09.195Z,984.78
2022-12-28T00:58:09.106Z,984.77
2022-12-28T00:59:09.019Z,984.78
2022-12-28T01:00:08.943Z,984.73
2022-12-28T01:01:29.954Z,984.73
2022-12-28T01:02:08.852Z,984.70
2022-12-28T01:03:08.745Z,984.77
2022-12-28T01:04:08.597Z,984.74
2022-12-28T01:05:08.502Z,984.73
2022-12-28T01:06:08.405Z,984.74
2022-12-28T01:07:29.307Z,984.69
2022-12-28T01:08:08.231Z,984.69
2022-12-28T01:09:08.141Z,984.72
2022-12-28T01:10:08.061Z,984.74
2022-12-28T01:11:07.974Z,984.74
2022-12-28T01:12:07.887Z,984.75
2022-12-28T01:13:28.764Z,984.76
2022-12-28T01:14:07.709Z,984.73
2022-12-28T01:15:07.617Z,984.76
2022-12-28T01:16:07.580Z,984.72
2022-12-28T01:17:07.445Z,984.68
2022-12-28T01:18:07.376Z,984.68
2022-12-28T01:19:28.254Z,984.66
2022-12-28T01:20:07.192Z,984.62
2022-12-28T01:21:07.102Z,984.64
2022-12-28T01:22:07.019Z,984.60
2022-12-28T01:23:06.932Z,984.58
2022-12-28T01:24:06.837Z,984.54
2022-12-28T01:25:27.730Z,984.57
2022-12-28T01:26:06.672Z,984.52
2022-12-28T01:27:06.568Z,984.54
2022-12-28T01:28:06.498Z,984.54
2022-12-28T01:29:06.402Z,984.56
2022-12-28T01:30:06.319Z,984.54
2022-12-28T01:31:27.246Z,984.56
2022-12-28T01:32:06.192Z,984.50
2022-12-28T01:33:06.042Z,984.51
2022-12-28T01:34:05.968Z,984.47
2022-12-28T01:35:05.883Z,984.45
2022-12-28T01:36:05.790Z,984.41
2022-12-28T01:37:26.676Z,984.42
2022-12-28T01:38:05.623Z,984.37
2022-12-28T01:39:05.551Z,984.33
2022-12-28T01:40:05.451Z,984.32
2022-12-28T01:41:05.365Z,984.30
2022-12-28T01:42:05.270Z,984.32
2022-12-28T01:43:29.686Z,984.30
2022-12-28T01:44:05.097Z,984.31
2022-12-28T01:45:05.012Z,984.33
2022-12-28T01:46:04.984Z,984.33
2022-12-28T01:47:04.825Z,984.32
2022-12-28T01:48:04.750Z,984.33
2022-12-28T01:49:25.623Z,984.27
2022-12-28T01:50:04.579Z,984.28
2022-12-28T01:51:04.480Z,984.19
2022-12-28T01:52:04.400Z,984.24
2022-12-28T01:53:04.313Z,984.19
2022-12-28T01:54:04.226Z,984.19
2022-12-28T01:55:25.098Z,984.16
2022-12-28T01:56:04.044Z,984.18
2022-12-28T01:57:03.978Z,984.09
2022-12-28T01:58:03.888Z,984.04
2022-12-28T01:59:03.786Z,984.04
2022-12-28T02:00:03.698Z,984.07
2022-12-28T02:01:24.654Z,984.04
2022-12-28T02:02:03.772Z,984.03
2022-12-28T02:03:03.447Z,983.98
2022-12-28T02:04:03.355Z,983.98
2022-12-28T02:05:03.269Z,983.97
2022-12-28T02:06:03.177Z,983.93
2022-12-28T02:07:24.065Z,983.95
2022-12-28T02:08:02.996Z,983.93
2022-12-28T02:09:02.910Z,983.89
2022-12-28T02:10:43.490Z,983.96
2022-12-28T02:11:02.738Z,983.88
2022-12-28T02:12:02.687Z,983.89
2022-12-28T02:13:23.546Z,983.90
2022-12-28T02:14:02.470Z,983.91
2022-12-28T02:15:02.404Z,983.88
2022-12-28T02:16:02.308Z,983.85
2022-12-28T02:17:02.251Z,983.84
2022-12-28T02:18:02.173Z,983.82
2022-12-28T02:19:23.018Z,983.78
2022-12-28T02:20:02.034Z,983.77
2022-12-28T02:21:01.862Z,983.75
2022-12-28T02:22:01.791Z,983.73
2022-12-28T02:23:01.682Z,983.72
2022-12-28T02:24:01.608Z,983.73
2022-12-28T02:25:22.496Z,983.68
2022-12-28T02:26:01.452Z,983.68
2022-12-28T02:27:01.340Z,983.67
2022-12-28T02:28:01.285Z,983.62
2022-12-28T02:29:01.171Z,983.57
2022-12-28T02:30:01.089Z,983.57
2022-12-28T02:31:21.974Z,983.51
2022-12-28T02:32:00.906Z,983.51
2022-12-28T02:33:00.811Z,983.53
2022-12-28T02:34:00.746Z,983.47
2022-12-28T02:35:00.651Z,983.49
2022-12-28T02:36:00.570Z,983.49
2022-12-28T02:37:21.457Z,983.46
2022-12-28T02:38:00.375Z,983.46
2022-12-28T02:39:00.305Z,983.41
2022-12-28T02:40:00.250Z,983.39
2022-12-28T02:41:00.136Z,983.40
2022-12-28T02:42:00.044Z,983.36
2022-12-28T02:43:20.926Z,983.33
2022-12-28T02:43:59.859Z,983.33
2022-12-28T02:44:59.776Z,983.27
2022-12-28T02:45:59.751Z,983.27
2022-12-28T02:46:59.601Z,983.22
2022-12-28T02:47:59.514Z,983.23
2022-12-28T02:49:20.417Z,983.15
2022-12-28T02:49:59.333Z,983.15
2022-12-28T02:50:59.262Z,983.13
2022-12-28T02:51:59.171Z,983.15
2022-12-28T02:52:59.072Z,983.17
2022-12-28T02:53:58.995Z,983.12
2022-12-28T02:55:19.889Z,983.15
2022-12-28T02:55:58.816Z,983.11
2022-12-28T02:56:58.726Z,983.05
2022-12-28T02:57:58.665Z,983.06
2022-12-28T02:58:58.570Z,983.03
2022-12-28T02:59:58.485Z,983.00
2022-12-28T03:01:19.439Z,983.03
2022-12-28T03:01:58.397Z,983.06
2022-12-28T03:02:58.295Z,983.05
2022-12-28T03:03:58.129Z,983.03
2022-12-28T03:04:58.036Z,983.00
2022-12-28T03:05:57.948Z,982.93
2022-12-28T03:07:18.836Z,982.95
2022-12-28T03:07:57.782Z,982.91
2022-12-28T03:08:57.703Z,982.94
2022-12-28T03:09:57.595Z,982.91
2022-12-28T03:10:57.515Z,982.92
2022-12-28T03:11:57.426Z,982.93
2022-12-28T03:13:18.330Z,982.86
2022-12-28T03:13:57.282Z,982.81
2022-12-28T03:14:57.170Z,982.84
2022-12-28T03:15:57.108Z,982.81
2022-12-28T03:16:57.007Z,982.83
2022-12-28T03:17:56.909Z,982.78
2022-12-28T03:19:17.825Z,982.79
2022-12-28T03:19:56.736Z,982.77
2022-12-28T03:20:56.649Z,982.80
2022-12-28T03:21:56.560Z,982.76
2022-12-28T03:22:56.490Z,982.77
2022-12-28T03:23:56.384Z,982.78
2022-12-28T03:25:17.277Z,982.79
2022-12-28T03:25:56.206Z,982.79
2022-12-28T03:26:56.129Z,982.81
2022-12-28T03:27:56.052Z,982.81
2022-12-28T03:28:55.951Z,982.76
2022-12-28T03:29:55.859Z,982.78
2022-12-28T03:31:16.818Z,982.71
2022-12-28T03:31:55.694Z,982.66
2022-12-28T03:32:55.604Z,982.61
2022-12-28T03:33:55.518Z,982.57
2022-12-28T03:34:55.454Z,982.55
2022-12-28T03:35:55.355Z,982.56
2022-12-28T03:37:16.245Z,982.59
2022-12-28T03:37:55.184Z,982.58
2022-12-28T03:38:55.087Z,982.55
2022-12-28T03:39:55.036Z,982.59
2022-12-28T03:40:54.912Z,982.57
2022-12-28T03:41:54.822Z,982.63
2022-12-28T03:43:15.722Z,982.61
2022-12-28T03:43:54.659Z,982.56
2022-12-28T03:44:54.598Z,982.58
2022-12-28T03:45:54.562Z,982.56
2022-12-28T03:46:54.396Z,982.51
2022-12-28T03:47:54.300Z,982.50
2022-12-28T03:49:15.199Z,982.49
2022-12-28T03:49:54.131Z,982.48
2022-12-28T03:50:54.053Z,982.51
2022-12-28T03:51:53.955Z,982.50
2022-12-28T03:52:53.870Z,982.52
2022-12-28T03:53:53.788Z,982.54
2022-12-28T03:55:14.679Z,982.51
2022-12-28T03:55:53.611Z,982.52
2022-12-28T03:56:53.540Z,982.54
2022-12-28T03:57:53.441Z,982.52
2022-12-28T03:58:53.369Z,982.50
2022-12-28T03:59:53.268Z,982.45
2022-12-28T04:01:14.263Z,982.42
2022-12-28T04:01:53.237Z,982.40
2022-12-28T04:02:53.072Z,982.36
2022-12-28T04:03:52.934Z,982.32
2022-12-28T04:04:52.831Z,982.29
2022-12-28T04:05:52.746Z,982.34
2022-12-28T04:07:13.643Z,982.35
2022-12-28T04:07:52.588Z,982.36
2022-12-28T04:08:52.491Z,982.36
2022-12-28T04:09:52.404Z,982.34
2022-12-28T04:10:52.340Z,982.32
2022-12-28T04:11:52.224Z,982.29
2022-12-28T04:13:13.122Z,982.24
2022-12-28T04:13:52.064Z,982.28
2022-12-28T04:14:51.973Z,982.26
2022-12-28T04:15:51.884Z,982.22
2022-12-28T04:16:51.826Z,982.23
2022-12-28T04:17:51.702Z,982.22
2022-12-28T04:19:12.612Z,982.19
2022-12-28T04:19:51.531Z,982.22
2022-12-28T04:20:51.458Z,982.15
2022-12-28T04:21:51.365Z,982.15
2022-12-28T04:22:51.282Z,982.15
2022-12-28T04:23:51.202Z,982.14
2022-12-28T04:25:12.087Z,982.11
2022-12-28T04:25:51.009Z,982.05
2022-12-28T04:26:50.929Z,982.02
2022-12-28T04:27:50.848Z,982.00
2022-12-28T04:28:50.758Z,982.00
2022-12-28T04:29:50.669Z,982.02
2022-12-28T04:31:11.630Z,982.06
2022-12-28T04:31:50.489Z,982.09
2022-12-28T04:32:50.422Z,982.04
2022-12-28T04:33:50.321Z,982.08
2022-12-28T04:34:50.238Z,982.10
2022-12-28T04:35:50.154Z,982.11
2022-12-28T04:37:11.048Z,982.08
2022-12-28T04:37:49.979Z,982.05
2022-12-28T04:38:49.903Z,982.06
2022-12-28T04:39:55.297Z,982.12
2022-12-28T04:40:49.729Z,982.16
2022-12-28T04:41:49.632Z,982.16
2022-12-28T04:43:10.553Z,982.18
2022-12-28T04:43:49.463Z,982.17
2022-12-28T04:44:49.382Z,982.14
2022-12-28T04:45:49.283Z,982.11
2022-12-28T04:46:49.285Z,982.11
2022-12-28T04:47:49.119Z,982.10
2022-12-28T04:49:10.017Z,982.08
2022-12-28T04:49:48.955Z,982.05
2022-12-28T04:50:48.873Z,982.03
2022-12-28T04:51:48.767Z,982.03
2022-12-28T04:52:48.701Z,981.99
2022-12-28T04:53:48.611Z,981.98
2022-12-28T04:55:09.503Z,981.98
2022-12-28T04:55:48.441Z,981.94
2022-12-28T04:56:48.346Z,981.94
2022-12-28T04:57:48.259Z,981.94
2022-12-28T04:58:48.185Z,981.91
2022-12-28T04:59:48.095Z,981.93
2022-12-28T05:01:09.098Z,981.96
2022-12-28T05:01:48.045Z,981.97
2022-12-28T05:02:47.871Z,981.95
2022-12-28T05:03:54.493Z,981.96
2022-12-28T05:04:47.649Z,981.98
2022-12-28T05:05:47.571Z,982.02
2022-12-28T05:07:08.486Z,981.96
2022-12-28T05:07:47.409Z,981.94
2022-12-28T05:08:47.325Z,981.95
2022-12-28T05:09:47.216Z,981.98
2022-12-28T05:10:47.146Z,981.96
2022-12-28T05:11:47.067Z,981.95
2022-12-28T05:13:07.949Z,981.98
2022-12-28T05:13:46.881Z,981.94
2022-12-28T05:14:46.788Z,981.94
2022-12-28T05:15:46.788Z,981.94
2022-12-28T05:16:46.639Z,981.91
2022-12-28T05:17:46.527Z,981.95
2022-12-28T05:19:07.426Z,981.95
2022-12-28T05:19:46.384Z,981.90
2022-12-28T05:20:46.285Z,981.91
2022-12-28T05:21:46.178Z,981.90
2022-12-28T05:22:46.105Z,981.95
2022-12-28T05:23:46.013Z,981.92
2022-12-28T05:25:06.906Z,981.96
2022-12-28T05:25:45.844Z,981.95
2022-12-28T05:26:45.771Z,981.94
2022-12-28T05:27:45.670Z,981.91
2022-12-28T05:28:45.586Z,981.91
2022-12-28T05:29:45.504Z,981.89
2022-12-28T05:31:06.440Z,981.84
2022-12-28T05:31:45.390Z,981.81
2022-12-28T05:32:45.260Z,981.84
2022-12-28T05:33:45.159Z,981.80
2022-12-28T05:34:45.079Z,981.79
2022-12-28T05:35:44.975Z,981.79
2022-12-28T05:37:05.879Z,981.80
2022-12-28T05:37:44.807Z,981.79
2022-12-28T05:38:44.727Z,981.80
2022-12-28T05:39:44.642Z,981.79
2022-12-28T05:40:44.552Z,981.87
2022-12-28T05:41:44.471Z,981.83
2022-12-28T05:43:05.355Z,981.84
2022-12-28T05:43:44.291Z,981.79
2022-12-28T05:44:44.216Z,981.79
2022-12-28T05:45:44.122Z,981.78
2022-12-28T05:46:44.075Z,981.79
2022-12-28T05:47:43.943Z,981.76
2022-12-28T05:49:04.842Z,981.79
2022-12-28T05:49:43.768Z,981.80
2022-12-28T05:50:43.696Z,981.74
2022-12-28T05:51:43.604Z,981.74
2022-12-28T05:52:43.516Z,981.75
2022-12-28T05:53:43.451Z,981.77
2022-12-28T05:55:04.324Z,981.76
2022-12-28T05:55:43.266Z,981.75
2022-12-28T05:56:43.176Z,981.77
2022-12-28T05:57:43.094Z,981.72
2022-12-28T05:58:43.020Z,981.72
2022-12-28T05:59:42.921Z,981.72
2022-12-28T06:01:03.830Z,981.72
2022-12-28T06:01:42.804Z,981.68
2022-12-28T06:02:46.378Z,981.72
2022-12-28T06:03:42.637Z,981.76
2022-12-28T06:04:42.493Z,981.74
2022-12-28T06:05:42.403Z,981.76
2022-12-28T06:07:03.294Z,981.76
2022-12-28T06:07:42.236Z,981.76
2022-12-28T06:08:42.152Z,981.75
2022-12-28T06:09:42.052Z,981.76
2022-12-28T06:10:41.992Z,981.74
2022-12-28T06:11:41.899Z,981.74
2022-12-28T06:13:02.782Z,981.73
2022-12-28T06:13:41.730Z,981.73
2022-12-28T06:14:41.637Z,981.68
2022-12-28T06:15:41.544Z,981.68
2022-12-28T06:16:41.517Z,981.69
2022-12-28T06:17:41.376Z,981.64
2022-12-28T06:19:02.288Z,981.63
2022-12-28T06:19:41.196Z,981.68
2022-12-28T06:20:41.112Z,981.68
2022-12-28T06:21:41.038Z,981.65
2022-12-28T06:22:40.949Z,981.63
2022-12-28T06:23:40.859Z,981.67
2022-12-28T06:25:01.749Z,981.68
2022-12-28T06:25:40.688Z,981.69
2022-12-28T06:26:40.599Z,981.69
2022-12-28T06:27:40.511Z,981.72
2022-12-28T06:28:40.434Z,981.74
2022-12-28T06:29:40.331Z,981.74
2022-12-28T06:31:01.235Z,981.68
2022-12-28T06:31:40.215Z,981.71
2022-12-28T06:32:40.103Z,981.68
2022-12-28T06:33:40.015Z,981.73
2022-12-28T06:34:39.926Z,981.69
2022-12-28T06:35:39.830Z,981.67
2022-12-28T06:37:00.734Z,981.67
2022-12-28T06:37:39.667Z,981.67
2022-12-28T06:38:39.573Z,981.63
2022-12-28T06:39:39.489Z,981.60
2022-12-28T06:41:11.800Z,981.58
2022-12-28T06:41:39.313Z,981.58
2022-12-28T06:43:00.216Z,981.57
2022-12-28T06:43:39.161Z,981.57
2022-12-28T06:44:44.402Z,981.58
2022-12-28T06:45:38.979Z,981.60
2022-12-28T06:46:38.907Z,981.57
2022-12-28T06:47:38.793Z,981.57
2022-12-28T06:48:59.691Z,981.55
2022-12-28T06:49:38.629Z,981.56
2022-12-28T06:50:40.260Z,981.53
2022-12-28T06:51:38.458Z,981.50
2022-12-28T06:52:38.373Z,981.53
2022-12-28T06:53:38.316Z,981.49
2022-12-28T06:54:59.179Z,981.45
2022-12-28T06:55:38.120Z,981.47
2022-12-28T06:56:38.026Z,981.46
2022-12-28T06:57:37.936Z,981.46
2022-12-28T06:58:37.892Z,981.44
2022-12-28T06:59:37.781Z,981.41
2022-12-28T07:00:58.736Z,981.40
2022-12-28T07:01:37.911Z,981.42
2022-12-28T07:02:37.673Z,981.39
2022-12-28T07:03:37.449Z,981.41
2022-12-28T07:04:37.346Z,981.40
2022-12-28T07:05:37.270Z,981.40
2022-12-28T07:06:58.152Z,981.39
2022-12-28T07:07:37.097Z,981.43
2022-12-28T07:08:37.004Z,981.37
2022-12-28T07:09:36.912Z,981.39
2022-12-28T07:10:36.833Z,981.33
2022-12-28T07:11:36.754Z,981.33
2022-12-28T07:12:57.629Z,981.33
2022-12-28T07:13:36.577Z,981.28
2022-12-28T07:14:36.477Z,981.31
2022-12-28T07:15:36.409Z,981.33
2022-12-28T07:16:57.311Z,981.25
2022-12-28T07:17:57.202Z,981.29
2022-12-28T07:18:36.150Z,981.20
2022-12-28T07:19:36.067Z,981.23
2022-12-28T07:20:40.407Z,981.21
2022-12-28T07:21:35.902Z,981.16
2022-12-28T07:22:35.811Z,981.17
2022-12-28T07:23:56.698Z,981.13
2022-12-28T07:24:35.654Z,981.12
2022-12-28T07:25:35.564Z,981.12
2022-12-28T07:26:35.468Z,981.05
2022-12-28T07:27:35.381Z,981.03
2022-12-28T07:28:35.293Z,981.03
2022-12-28T07:29:56.204Z,981.04
2022-12-28T07:30:35.135Z,981.07
2022-12-28T07:31:40.024Z,981.11
2022-12-28T07:32:34.960Z,981.10
2022-12-28T07:33:34.866Z,981.08
2022-12-28T07:34:34.775Z,981.07
2022-12-28T07:35:55.664Z,981.05
2022-12-28T07:36:34.608Z,981.09
2022-12-28T07:37:34.517Z,981.18
2022-12-28T07:38:34.448Z,981.11
2022-12-28T07:39:34.357Z,981.11
2022-12-28T07:40:34.272Z,981.14
2022-12-28T07:41:55.161Z,981.08
2022-12-28T07:42:34.095Z,981.08
2022-12-28T07:43:34.019Z,981.09
2022-12-28T07:44:38.014Z,981.11
2022-12-28T07:45:33.851Z,981.04
2022-12-28T07:46:33.878Z,981.08
2022-12-28T07:47:54.645Z,981.04
2022-12-28T07:48:33.591Z,981.01
2022-12-28T07:49:33.490Z,981.03
2022-12-28T07:50:37.614Z,981.03
2022-12-28T07:51:33.337Z,981.03
2022-12-28T07:52:33.241Z,980.99
2022-12-28T07:53:54.133Z,981.03
2022-12-28T07:54:33.081Z,981.02
2022-12-28T07:55:33.003Z,981.07
2022-12-28T07:56:53.889Z,981.10
2022-12-28T07:57:32.807Z,981.11
2022-12-28T07:58:53.716Z,981.10
2022-12-28T07:59:32.653Z,981.10
2022-12-28T08:00:32.551Z,981.05
2022-12-28T08:01:32.737Z,981.05
2022-12-28T08:02:32.428Z,981.06
2022-12-28T08:03:32.372Z,981.08
2022-12-28T08:04:53.197Z,981.03
2022-12-28T08:05:32.140Z,981.06
2022-12-28T08:06:32.049Z,981.04
2022-12-28T08:07:31.957Z,981.02
2022-12-28T08:08:31.868Z,980.92
2022-12-28T08:09:31.804Z,980.94
2022-12-28T08:10:52.691Z,980.96
2022-12-28T08:11:31.658Z,980.98
2022-12-28T08:12:31.531Z,980.92
2022-12-28T08:13:31.455Z,980.96
2022-12-28T08:14:31.367Z,980.90
2022-12-28T08:15:31.336Z,980.90
2022-12-28T08:16:52.165Z,980.90
2022-12-28T08:17:31.113Z,980.88
2022-12-28T08:18:31.031Z,980.85
2022-12-28T08:19:30.944Z,980.85
2022-12-28T08:20:30.851Z,980.86
2022-12-28T08:21:30.765Z,980.88
2022-12-28T08:22:51.653Z,980.83
2022-12-28T08:23:30.607Z,980.81
2022-12-28T08:24:30.537Z,980.81
2022-12-28T08:25:30.441Z,980.82
2022-12-28T08:26:30.356Z,980.81
2022-12-28T08:27:33.581Z,980.81
2022-12-28T08:28:51.155Z,980.78
2022-12-28T08:29:30.089Z,980.75
2022-12-28T08:30:29.996Z,980.78
2022-12-28T08:31:30.041Z,980.77
2022-12-28T08:32:29.842Z,980.81
2022-12-28T08:33:29.765Z,980.80
2022-12-28T08:34:50.642Z,980.77
2022-12-28T08:35:29.578Z,980.79
2022-12-28T08:36:29.490Z,980.77
2022-12-28T08:37:29.420Z,980.81
2022-12-28T08:38:29.316Z,980.82
2022-12-28T08:39:29.255Z,980.84
2022-12-28T08:40:57.167Z,980.85
2022-12-28T08:41:29.087Z,980.89
2022-12-28T08:42:29.012Z,980.88
2022-12-28T08:43:28.908Z,980.91
2022-12-28T08:44:28.819Z,980.91
2022-12-28T08:45:28.857Z,980.88
2022-12-28T08:46:49.751Z,980.84
2022-12-28T08:47:28.574Z,980.84
2022-12-28T08:48:28.468Z,980.82
2022-12-28T08:49:28.420Z,980.81
2022-12-28T08:50:31.757Z,980.81
2022-12-28T08:51:28.229Z,980.76
2022-12-28T08:52:49.127Z,980.73
2022-12-28T08:53:28.059Z,980.76
2022-12-28T08:54:27.964Z,980.77
2022-12-28T08:55:27.897Z,980.76
2022-12-28T08:56:27.851Z,980.72
2022-12-28T08:57:27.722Z,980.71
2022-12-28T08:58:48.637Z,980.68
2022-12-28T08:59:27.559Z,980.67
2022-12-28T09:00:27.452Z,980.72
2022-12-28T09:01:27.555Z,980.70
2022-12-28T09:02:27.429Z,980.70
2022-12-28T09:03:27.235Z,980.69
2022-12-28T09:04:48.091Z,980.67
2022-12-28T09:05:27.055Z,980.69
2022-12-28T09:06:26.949Z,980.70
2022-12-28T09:07:26.875Z,980.70
2022-12-28T09:08:26.796Z,980.70
2022-12-28T09:09:26.699Z,980.67
2022-12-28T09:10:47.597Z,980.66
2022-12-28T09:11:26.537Z,980.66
2022-12-28T09:12:26.445Z,980.67
2022-12-28T09:13:26.368Z,980.66
2022-12-28T09:14:26.276Z,980.73
2022-12-28T09:15:26.208Z,980.68
2022-12-28T09:16:47.093Z,980.68
2022-12-28T09:17:26.039Z,980.70
2022-12-28T09:18:25.946Z,980.72
2022-12-28T09:19:25.873Z,980.69
2022-12-28T09:20:25.775Z,980.65
2022-12-28T09:21:25.685Z,980.69
2022-12-28T09:22:46.577Z,980.65
2022-12-28T09:23:25.515Z,980.66
2022-12-28T09:24:25.444Z,980.63
2022-12-28T09:25:25.357Z,980.64
2022-12-28T09:26:25.272Z,980.58
2022-12-28T09:27:25.184Z,980.54
2022-12-28T09:28:46.067Z,980.50
2022-12-28T09:29:25.019Z,980.48
2022-12-28T09:30:24.927Z,980.51
2022-12-28T09:31:24.862Z,980.47
2022-12-28T09:32:24.752Z,980.49
2022-12-28T09:33:24.682Z,980.53
2022-12-28T09:34:45.572Z,980.48
2022-12-28T09:35:24.522Z,980.54
2022-12-28T09:36:24.426Z,980.52
2022-12-28T09:37:24.327Z,980.51
2022-12-28T09:38:24.249Z,980.53
2022-12-28T09:39:24.251Z,980.51
2022-12-28T09:40:45.067Z,980.55
2022-12-28T09:41:24.008Z,980.54
2022-12-28T09:42:23.930Z,980.60
2022-12-28T09:43:23.843Z,980.57
2022-12-28T09:44:23.753Z,980.56
2022-12-28T09:45:23.669Z,980.54
2022-12-28T09:46:48.760Z,980.58
2022-12-28T09:47:23.506Z,980.53
2022-12-28T09:48:23.418Z,980.51
2022-12-28T09:49:23.333Z,980.52
2022-12-28T09:50:23.236Z,980.53
2022-12-28T09:51:23.170Z,980.51
2022-12-28T09:52:49.517Z,980.53
2022-12-28T09:53:22.993Z,980.54
2022-12-28T09:54:22.924Z,980.51
2022-12-28T09:55:22.819Z,980.52
2022-12-28T09:56:22.736Z,980.50
2022-12-28T09:57:22.663Z,980.55
2022-12-28T09:58:47.737Z,980.52
2022-12-28T09:59:22.489Z,980.55
2022-12-28T10:00:22.406Z,980.54
2022-12-28T10:01:22.451Z,980.52
2022-12-28T10:02:22.343Z,980.52
2022-12-28T10:03:22.173Z,980.54
2022-12-28T10:04:49.008Z,980.55
2022-12-28T10:05:21.993Z,980.57
2022-12-28T10:06:21.891Z,980.52
2022-12-28T10:07:21.819Z,980.49
2022-12-28T10:08:21.741Z,980.48
2022-12-28T10:09:21.647Z,980.50
2022-12-28T10:10:46.795Z,980.48
2022-12-28T10:11:21.500Z,980.48
2022-12-28T10:12:21.393Z,980.46
2022-12-28T10:13:53.154Z,980.45
2022-12-28T10:14:21.233Z,980.43
2022-12-28T10:15:21.158Z,980.42
2022-12-28T10:16:48.345Z,980.39
2022-12-28T10:17:20.979Z,980.41
2022-12-28T10:18:20.891Z,980.39
2022-12-28T10:19:20.818Z,980.40
2022-12-28T10:20:20.740Z,980.36
2022-12-28T10:21:21.180Z,980.38
2022-12-28T10:22:46.348Z,980.36
2022-12-28T10:23:20.489Z,980.33
2022-12-28T10:24:31.267Z,980.32
2022-12-28T10:25:20.310Z,980.30
2022-12-28T10:26:20.229Z,980.30
2022-12-28T10:27:20.145Z,980.28
2022-12-28T10:28:47.116Z,980.27
2022-12-28T10:29:19.996Z,980.23
2022-12-28T10:30:19.893Z,980.26
2022-12-28T10:31:19.834Z,980.24
2022-12-28T10:32:19.728Z,980.25
2022-12-28T10:33:19.648Z,980.25
2022-12-28T10:34:40.545Z,980.26
2022-12-28T10:35:19.478Z,980.20
2022-12-28T10:36:19.392Z,980.18
2022-12-28T10:37:19.306Z,980.22
2022-12-28T10:38:19.227Z,980.16
2022-12-28T10:39:19.148Z,980.19
2022-12-28T10:40:40.031Z,980.18
2022-12-28T10:41:18.986Z,980.16
2022-12-28T10:42:18.892Z,980.16
2022-12-28T10:43:18.810Z,980.13
2022-12-28T10:45:18.648Z,980.10
2022-12-28T10:46:39.570Z,980.07
2022-12-28T10:47:18.497Z,980.07
2022-12-28T10:48:18.463Z,980.07
2022-12-28T10:49:18.320Z,980.05
2022-12-28T10:50:36.593Z,980.09
2022-12-28T10:51:18.143Z,980.09
2022-12-28T10:52:39.050Z,980.07
2022-12-28T10:53:17.983Z,980.04
2022-12-28T10:54:17.894Z,980.03
2022-12-28T10:55:17.802Z,980.07
2022-12-28T10:56:17.719Z,979.97
2022-12-28T10:57:17.650Z,980.01
2022-12-28T10:58:38.534Z,979.94
2022-12-28T10:59:17.492Z,979.95
2022-12-28T11:00:17.398Z,979.96
2022-12-28T11:01:17.864Z,979.97
2022-12-28T11:02:17.383Z,979.97
2022-12-28T11:03:17.162Z,979.91
2022-12-28T11:04:38.041Z,979.91
2022-12-28T11:05:16.982Z,979.85
2022-12-28T11:06:19.897Z,979.87
2022-12-28T11:07:16.813Z,979.81
2022-12-28T11:08:16.750Z,979.83
2022-12-28T11:09:16.662Z,979.85
2022-12-28T11:10:37.579Z,979.83
2022-12-28T11:11:16.486Z,979.79
2022-12-28T11:12:16.404Z,979.80
2022-12-28T11:13:21.606Z,979.84
2022-12-28T11:14:16.233Z,979.83
2022-12-28T11:15:16.149Z,979.79
2022-12-28T11:16:37.075Z,979.81
2022-12-28T11:17:15.994Z,979.78
2022-12-28T11:18:15.904Z,979.74
2022-12-28T11:19:15.808Z,979.73
2022-12-28T11:20:15.788Z,979.77
2022-12-28T11:21:15.655Z,979.74
2022-12-28T11:22:36.550Z,979.77
2022-12-28T11:23:15.489Z,979.75
2022-12-28T11:24:15.428Z,979.71
2022-12-28T11:25:15.313Z,979.69
2022-12-28T11:26:15.240Z,979.68
2022-12-28T11:27:15.168Z,979.63
2022-12-28T11:28:36.063Z,979.67
2022-12-28T11:29:14.991Z,979.63
2022-12-28T11:30:17.469Z,979.61
2022-12-28T11:31:14.865Z,979.58
2022-12-28T11:32:14.741Z,979.58
2022-12-28T11:33:14.659Z,979.53
2022-12-28T11:34:35.559Z,979.51
2022-12-28T11:35:14.496Z,979.52
2022-12-28T11:36:14.414Z,979.51
2022-12-28T11:37:14.340Z,979.50
2022-12-28T11:38:14.255Z,979.46
2022-12-28T11:39:14.163Z,979.41
2022-12-28T11:40:35.065Z,979.39
2022-12-28T11:41:14.001Z,979.40
2022-12-28T11:42:38.869Z,979.37
2022-12-28T11:43:13.824Z,979.45
2022-12-28T11:44:13.748Z,979.41
2022-12-28T11:45:13.681Z,979.36
2022-12-28T11:46:34.565Z,979.36
2022-12-28T11:47:13.515Z,979.34
2022-12-28T11:48:13.421Z,979.35
2022-12-28T11:49:13.330Z,979.30
2022-12-28T11:50:13.260Z,979.34
2022-12-28T11:51:13.181Z,979.33
2022-12-28T11:52:34.095Z,979.34
2022-12-28T11:53:14.093Z,979.28
2022-12-28T11:54:12.923Z,979.27
2022-12-28T11:55:12.844Z,979.28
2022-12-28T11:56:12.768Z,979.25
2022-12-28T11:57:12.672Z,979.20
2022-12-28T11:58:33.592Z,979.08
2022-12-28T11:59:12.503Z,979.07
2022-12-28T12:00:17.151Z,979.04
2022-12-28T12:01:12.371Z,979.07
2022-12-28T12:02:12.355Z,979.08
2022-12-28T12:03:12.239Z,979.01
2022-12-28T12:04:33.092Z,979.01
2022-12-28T12:05:12.015Z,978.98
2022-12-28T12:06:11.948Z,978.99
2022-12-28T12:07:11.866Z,978.93
2022-12-28T12:08:11.786Z,978.94
2022-12-28T12:09:11.698Z,978.88
2022-12-28T12:10:32.580Z,978.86
2022-12-28T12:11:11.530Z,978.82
2022-12-28T12:12:17.234Z,978.80
2022-12-28T12:13:11.365Z,978.79
2022-12-28T12:14:11.287Z,978.81
2022-12-28T12:15:11.201Z,978.79
2022-12-28T12:16:32.141Z,978.68
2022-12-28T12:17:11.069Z,978.67
2022-12-28T12:18:10.950Z,978.70
2022-12-28T12:19:10.861Z,978.74
2022-12-28T12:20:10.798Z,978.73
2022-12-28T12:21:15.865Z,978.73
2022-12-28T12:22:31.599Z,978.72
2022-12-28T12:23:10.533Z,978.71
2022-12-28T12:24:10.445Z,978.73
2022-12-28T12:25:10.372Z,978.73
2022-12-28T12:26:10.303Z,978.72
2022-12-28T12:27:12.223Z,978.77
2022-12-28T12:28:31.110Z,978.74